Malone, Texas
Current Conditions -  °F | °C
As of 2:55 PM on Tuesday 25 Nov 2014 (Local Time) from KINJ Reporting Station
Scattered Clouds Scattered Clouds  
Wind Chill: 65°   Ceiling: Unl
Heat Index: 65°   Visibility: 10mi
Dew Point: 25°   Wind: 15mph
Humidity: 22%   Direction: 260°W
Pressure: 30.18"   Gusts: 22mph
Location:  31.92°N, 96.89°W
Report Text: KINJ 252055Z AUTO 26013G19KT 10SM SCT090 SCT110 18/M04 A3018 RMK AO2 T01811039
Loading
Personal Weather Stations






























Interactive Weather Map New forecast layout! Learn more

10-Day Weather Forecast

Advertisements
Track Severe Weather on mobile